sensor_id;sensor_type;location;lat;lon;timestamp;pressure;altitude;pressure_sealevel;temperature;humidity
24013;BME280;12220;50.194;18.948;2023-03-24T00:01:01;101330.38;;;16.88;49.80
24013;BME280;12220;50.194;18.948;2023-03-24T00:03:03;101325.85;;;16.87;49.81
24013;BME280;12220;50.194;18.948;2023-03-24T00:05:05;101325.85;;;16.87;49.83
24013;BME280;12220;50.194;18.948;2023-03-24T00:07:13;101327.72;;;16.87;49.85
24013;BME280;12220;50.194;18.948;2023-03-24T00:09:16;101326.99;;;16.85;49.84
24013;BME280;12220;50.194;18.948;2023-03-24T00:11:18;101319.69;;;16.84;49.94
24013;BME280;12220;50.194;18.948;2023-03-24T00:13:21;101321.70;;;16.82;49.93
24013;BME280;12220;50.194;18.948;2023-03-24T00:15:29;101321.70;;;16.82;49.97
24013;BME280;12220;50.194;18.948;2023-03-24T00:17:31;101320.10;;;16.79;49.99
24013;BME280;12220;50.194;18.948;2023-03-24T00:19:36;101316.30;;;16.80;50.01
24013;BME280;12220;50.194;18.948;2023-03-24T00:21:39;101310.78;;;16.80;50.00
24013;BME280;12220;50.194;18.948;2023-03-24T00:23:43;101306.14;;;16.81;50.03
24013;BME280;12220;50.194;18.948;2023-03-24T00:28:03;101302.61;;;16.79;50.08
24013;BME280;12220;50.194;18.948;2023-03-24T00:30:08;101304.38;;;16.80;50.11
24013;BME280;12220;50.194;18.948;2023-03-24T00:32:11;101306.41;;;16.78;50.18
24013;BME280;12220;50.194;18.948;2023-03-24T00:34:13;101301.88;;;16.77;50.18
24013;BME280;12220;50.194;18.948;2023-03-24T00:36:16;101297.49;;;16.74;50.26
24013;BME280;12220;50.194;18.948;2023-03-24T00:38:19;101298.25;;;16.76;50.23
24013;BME280;12220;50.194;18.948;2023-03-24T00:40:22;101292.72;;;16.76;50.25
24013;BME280;12220;50.194;18.948;2023-03-24T00:42:25;101297.35;;;16.76;50.31
24013;BME280;12220;50.194;18.948;2023-03-24T00:44:27;101283.52;;;16.76;50.29
24013;BME280;12220;50.194;18.948;2023-03-24T00:46:28;101293.59;;;16.77;50.30
24013;BME280;12220;50.194;18.948;2023-03-24T00:48:37;101289.82;;;16.78;50.32
24013;BME280;12220;50.194;18.948;2023-03-24T00:50:47;101284.16;;;16.79;50.34
24013;BME280;12220;50.194;18.948;2023-03-24T00:52:49;101287.77;;;16.80;50.35
24013;BME280;12220;50.194;18.948;2023-03-24T00:54:52;101282.98;;;16.82;50.37
24013;BME280;12220;50.194;18.948;2023-03-24T00:56:59;101344.86;;;16.81;50.38
24013;BME280;12220;50.194;18.948;2023-03-24T00:59:03;101271.19;;;16.80;50.38
24013;BME280;12220;50.194;18.948;2023-03-24T01:01:05;101267.55;;;16.79;50.43
24013;BME280;12220;50.194;18.948;2023-03-24T01:03:07;101264.93;;;16.78;50.45
24013;BME280;12220;50.194;18.948;2023-03-24T01:05:10;101264.03;;;16.77;50.50
24013;BME280;12220;50.194;18.948;2023-03-24T01:07:13;101260.67;;;16.73;50.49
24013;BME280;12220;50.194;18.948;2023-03-24T01:09:18;101260.81;;;16.72;50.54
24013;BME280;12220;50.194;18.948;2023-03-24T01:11:24;101252.92;;;16.67;50.61
24013;BME280;12220;50.194;18.948;2023-03-24T01:13:28;101253.03;;;16.66;50.67
24013;BME280;12220;50.194;18.948;2023-03-24T01:15:32;101258.98;;;16.61;50.77
24013;BME280;12220;50.194;18.948;2023-03-24T01:17:36;101263.02;;;16.57;50.84
24013;BME280;12220;50.194;18.948;2023-03-24T01:19:38;101258.66;;;16.54;50.88
24013;BME280;12220;50.194;18.948;2023-03-24T01:21:41;101259.92;;;16.50;50.96
24013;BME280;12220;50.194;18.948;2023-03-24T01:23:43;101252.90;;;16.46;51.05
24013;BME280;12220;50.194;18.948;2023-03-24T01:25:45;101254.94;;;16.44;51.11
24013;BME280;12220;50.194;18.948;2023-03-24T01:27:50;101254.94;;;16.44;51.15
24013;BME280;12220;50.194;18.948;2023-03-24T01:29:59;101254.03;;;16.44;51.19
24013;BME280;12220;50.194;18.948;2023-03-24T01:32:02;101254.18;;;16.42;51.23
24013;BME280;12220;50.194;18.948;2023-03-24T01:34:04;101252.30;;;16.43;51.27
24013;BME280;12220;50.194;18.948;2023-03-24T01:36:06;101250.27;;;16.45;51.27
24013;BME280;12220;50.194;18.948;2023-03-24T01:38:12;101254.80;;;16.46;51.27
24013;BME280;12220;50.194;18.948;2023-03-24T01:40:20;101250.99;;;16.47;51.30
24013;BME280;12220;50.194;18.948;2023-03-24T01:42:24;101243.62;;;16.47;51.38
24013;BME280;12220;50.194;18.948;2023-03-24T01:44:35;101245.34;;;16.48;51.34
24013;BME280;12220;50.194;18.948;2023-03-24T01:46:37;101240.70;;;16.49;51.39
24013;BME280;12220;50.194;18.948;2023-03-24T01:53:33;101237.80;;;16.50;51.50
24013;BME280;12220;50.194;18.948;2023-03-24T01:55:37;101246.24;;;16.49;51.52
24013;BME280;12220;50.194;18.948;2023-03-24T01:57:43;101243.47;;;16.49;51.70
24013;BME280;12220;50.194;18.948;2023-03-24T01:59:48;101238.95;;;16.48;51.61
24013;BME280;12220;50.194;18.948;2023-03-24T02:01:51;101240.84;;;16.47;51.64
24013;BME280;12220;50.194;18.948;2023-03-24T02:04:07;101245.61;;;16.45;51.66
24013;BME280;12220;50.194;18.948;2023-03-24T02:06:10;101241.25;;;16.43;51.70
24013;BME280;12220;50.194;18.948;2023-03-24T02:10:26;101232.33;;;16.39;51.79
24013;BME280;12220;50.194;18.948;2023-03-24T02:12:31;101225.18;;;16.36;51.83
24013;BME280;12220;50.194;18.948;2023-03-24T02:14:43;101229.84;;;16.36;51.84
24013;BME280;12220;50.194;18.948;2023-03-24T02:28:08;101224.23;;;16.26;52.09
24013;BME280;12220;50.194;18.948;2023-03-24T02:42:06;101212.21;;;16.16;52.35
24013;BME280;12220;50.194;18.948;2023-03-24T02:46:45;101203.48;;;16.11;52.43
24013;BME280;12220;50.194;18.948;2023-03-24T02:49:07;101207.23;;;16.10;52.46
24013;BME280;12220;50.194;18.948;2023-03-24T02:56:12;101201.21;;;16.04;52.58
24013;BME280;12220;50.194;18.948;2023-03-24T03:00:54;101190.42;;;16.01;52.66
24013;BME280;12220;50.194;18.948;2023-03-24T03:03:13;101191.33;;;16.02;52.75
24013;BME280;12220;50.194;18.948;2023-03-24T03:05:29;101194.09;;;16.02;52.84
24013;BME280;12220;50.194;18.948;2023-03-24T03:07:29;101191.45;;;16.00;52.96
24013;BME280;12220;50.194;18.948;2023-03-24T03:09:46;101191.45;;;16.00;53.12
24013;BME280;12220;50.194;18.948;2023-03-24T03:11:52;101203.51;;;15.99;53.30
24013;BME280;12220;50.194;18.948;2023-03-24T03:14:02;101202.75;;;15.97;53.49
24013;BME280;12220;50.194;18.948;2023-03-24T03:16:21;101199.25;;;15.95;53.70
24013;BME280;12220;50.194;18.948;2023-03-24T03:18:47;101193.99;;;15.92;54.05
24013;BME280;12220;50.194;18.948;2023-03-24T03:21:01;101200.65;;;15.90;54.23
24013;BME280;12220;50.194;18.948;2023-03-24T03:23:09;101199.15;;;15.85;54.49
24013;BME280;12220;50.194;18.948;2023-03-24T03:25:16;101196.91;;;15.79;54.73
24013;BME280;12220;50.194;18.948;2023-03-24T03:27:24;101204.80;;;15.73;55.00
24013;BME280;12220;50.194;18.948;2023-03-24T03:29:35;101203.34;;;15.68;55.29
24013;BME280;12220;50.194;18.948;2023-03-24T03:31:43;101207.35;;;15.64;55.54
24013;BME280;12220;50.194;18.948;2023-03-24T03:36:33;101204.62;;;15.53;56.16
24013;BME280;12220;50.194;18.948;2023-03-24T03:38:56;101198.48;;;15.49;56.45
24013;BME280;12220;50.194;18.948;2023-03-24T03:41:04;101198.98;;;15.43;56.72
24013;BME280;12220;50.194;18.948;2023-03-24T03:43:06;101196.48;;;15.40;56.94
24013;BME280;12220;50.194;18.948;2023-03-24T03:45:09;101195.87;;;15.37;57.17
24013;BME280;12220;50.194;18.948;2023-03-24T03:47:12;101190.62;;;15.33;57.44
24013;BME280;12220;50.194;18.948;2023-03-24T03:49:19;101184.59;;;15.28;57.61
24013;BME280;12220;50.194;18.948;2023-03-24T03:51:21;101190.36;;;15.25;57.85
24013;BME280;12220;50.194;18.948;2023-03-24T03:53:27;101187.99;;;15.21;58.08
24013;BME280;12220;50.194;18.948;2023-03-24T03:55:32;101188.13;;;15.19;58.33
24013;BME280;12220;50.194;18.948;2023-03-24T03:57:36;101187.48;;;15.15;58.50
24013;BME280;12220;50.194;18.948;2023-03-24T03:59:38;101184.85;;;15.14;58.66
24013;BME280;12220;50.194;18.948;2023-03-24T04:01:40;101195.14;;;15.12;58.85
24013;BME280;12220;50.194;18.948;2023-03-24T04:06:00;101190.88;;;15.08;59.22
24013;BME280;12220;50.194;18.948;2023-03-24T04:10:45;101197.77;;;15.02;59.37
24013;BME280;12220;50.194;18.948;2023-03-24T04:20:07;101197.89;;;14.89;60.43
24013;BME280;12220;50.194;18.948;2023-03-24T04:22:31;101202.66;;;14.87;60.63
24013;BME280;12220;50.194;18.948;2023-03-24T04:24:47;101199.13;;;14.85;60.84
24013;BME280;12220;50.194;18.948;2023-03-24T04:35:00;101206.16;;;14.67;61.81
24013;BME280;12220;50.194;18.948;2023-03-24T04:45:07;101188.78;;;14.53;62.59
24013;BME280;12220;50.194;18.948;2023-03-24T04:47:28;101195.69;;;14.47;62.81
24013;BME280;12220;50.194;18.948;2023-03-24T04:49:48;101196.80;;;14.45;63.01
24013;BME280;12220;50.194;18.948;2023-03-24T04:54:39;101199.69;;;14.43;63.34
24013;BME280;12220;50.194;18.948;2023-03-24T04:57:10;101197.17;;;14.40;63.50
24013;BME280;12220;50.194;18.948;2023-03-24T04:59:39;101198.29;;;14.38;63.68
24013;BME280;12220;50.194;18.948;2023-03-24T05:02:02;101136.70;;;14.03;63.83
24013;BME280;12220;50.194;18.948;2023-03-24T05:04:15;101199.41;;;14.35;64.03
24013;BME280;12220;50.194;18.948;2023-03-24T05:09:03;101198.66;;;14.33;64.30
24013;BME280;12220;50.194;18.948;2023-03-24T05:11:22;101183.98;;;14.33;64.45
24013;BME280;12220;50.194;18.948;2023-03-24T05:13:53;101197.26;;;14.27;64.75
24013;BME280;12220;50.194;18.948;2023-03-24T05:18:44;101181.68;;;14.15;65.07
24013;BME280;12220;50.194;18.948;2023-03-24T05:20:46;101186.70;;;14.10;65.36
24013;BME280;12220;50.194;18.948;2023-03-24T05:22:47;101186.15;;;14.05;65.61
24013;BME280;12220;50.194;18.948;2023-03-24T05:24:59;101184.41;;;14.04;65.72
24013;BME280;12220;50.194;18.948;2023-03-24T05:27:04;101184.63;;;14.01;65.96
24013;BME280;12220;50.194;18.948;2023-03-24T05:29:05;101181.13;;;13.99;66.13
24013;BME280;12220;50.194;18.948;2023-03-24T05:31:07;101179.36;;;13.98;66.26
24013;BME280;12220;50.194;18.948;2023-03-24T05:33:14;101187.63;;;13.98;66.32
24013;BME280;12220;50.194;18.948;2023-03-24T05:35:17;101184.87;;;13.98;66.45
24013;BME280;12220;50.194;18.948;2023-03-24T05:37:19;101187.63;;;13.98;66.55
24013;BME280;12220;50.194;18.948;2023-03-24T05:39:20;101183.02;;;13.98;66.64
24013;BME280;12220;50.194;18.948;2023-03-24T05:41:29;101187.50;;;13.99;66.69
24013;BME280;12220;50.194;18.948;2023-03-24T05:43:31;101181.25;;;13.97;66.82
24013;BME280;12220;50.194;18.948;2023-03-24T05:45:33;101184.99;;;13.96;66.98
24013;BME280;12220;50.194;18.948;2023-03-24T05:47:35;101182.37;;;13.94;67.06
24013;BME280;12220;50.194;18.948;2023-03-24T05:49:47;101186.09;;;13.93;67.09
24013;BME280;12220;50.194;18.948;2023-03-24T05:51:48;101186.09;;;13.93;67.24
24013;BME280;12220;50.194;18.948;2023-03-24T05:53:50;101182.37;;;13.94;67.38
24013;BME280;12220;50.194;18.948;2023-03-24T05:55:52;101184.01;;;13.97;67.50
24013;BME280;12220;50.194;18.948;2023-03-24T05:57:59;101183.88;;;13.99;67.54
24013;BME280;12220;50.194;18.948;2023-03-24T06:00:05;101184.01;;;13.97;67.73
24013;BME280;12220;50.194;18.948;2023-03-24T06:02:18;101177.75;;;13.95;67.85
24013;BME280;12220;50.194;18.948;2023-03-24T06:04:20;101177.10;;;13.91;68.13
24013;BME280;12220;50.194;18.948;2023-03-24T06:06:23;101173.59;;;13.89;68.28
24013;BME280;12220;50.194;18.948;2023-03-24T06:08:28;101179.34;;;13.86;68.44
24013;BME280;12220;50.194;18.948;2023-03-24T06:10:33;101178.57;;;13.84;68.58
24013;BME280;12220;50.194;18.948;2023-03-24T06:12:37;101173.06;;;13.84;68.86
24013;BME280;12220;50.194;18.948;2023-03-24T06:14:38;101180.45;;;13.84;68.99
24013;BME280;12220;50.194;18.948;2023-03-24T06:16:40;101174.05;;;13.83;69.38
24013;BME280;12220;50.194;18.948;2023-03-24T06:18:42;101169.69;;;13.81;69.56
24013;BME280;12220;50.194;18.948;2023-03-24T06:20:53;101173.53;;;13.78;69.70
24013;BME280;12220;50.194;18.948;2023-03-24T06:22:59;101178.18;;;13.77;69.91
24013;BME280;12220;50.194;18.948;2023-03-24T06:25:03;101186.43;;;13.77;70.00
24013;BME280;12220;50.194;18.948;2023-03-24T06:27:04;101174.40;;;13.78;70.13
24013;BME280;12220;50.194;18.948;2023-03-24T06:29:10;101169.69;;;13.81;70.44
24013;BME280;12220;50.194;18.948;2023-03-24T06:31:12;101215.58;;;13.80;70.68
24013;BME280;12220;50.194;18.948;2023-03-24T06:33:31;101168.78;;;13.80;70.75
24013;BME280;12220;50.194;18.948;2023-03-24T06:35:32;101164.18;;;13.81;70.97
24013;BME280;12220;50.194;18.948;2023-03-24T06:37:34;101171.53;;;13.80;71.15
24013;BME280;12220;50.194;18.948;2023-03-24T06:39:36;101172.31;;;13.82;71.32
24013;BME280;12220;50.194;18.948;2023-03-24T06:41:46;101180.45;;;13.84;71.39
24013;BME280;12220;50.194;18.948;2023-03-24T06:43:47;101172.19;;;13.84;71.61
24013;BME280;12220;50.194;18.948;2023-03-24T06:45:49;101174.82;;;13.85;71.69
24013;BME280;12220;50.194;18.948;2023-03-24T06:52:56;101166.20;;;13.90;72.00
24013;BME280;12220;50.194;18.948;2023-03-24T07:00:30;101161.23;;;13.95;72.18
24013;BME280;12220;50.194;18.948;2023-03-24T07:03:07;101162.96;;;13.96;72.30
24013;BME280;12220;50.194;18.948;2023-03-24T07:20:26;101160.80;;;14.24;72.88
24013;BME280;12220;50.194;18.948;2023-03-24T07:22:57;101163.09;;;14.30;72.96
24013;BME280;12220;50.194;18.948;2023-03-24T07:25:21;101159.97;;;14.35;73.01
24013;BME280;12220;50.194;18.948;2023-03-24T07:30:22;101167.48;;;14.44;72.82
24013;BME280;12220;50.194;18.948;2023-03-24T07:32:55;101162.38;;;14.51;72.78
24013;BME280;12220;50.194;18.948;2023-03-24T07:35:21;101161.01;;;14.56;72.67
24013;BME280;12220;50.194;18.948;2023-03-24T07:37:57;101160.54;;;14.62;72.55
24013;BME280;12220;50.194;18.948;2023-03-24T07:42:57;101151.27;;;14.75;72.45
24013;BME280;12220;50.194;18.948;2023-03-24T07:47:58;101144.77;;;14.87;72.35
24013;BME280;12220;50.194;18.948;2023-03-24T07:53:08;101158.43;;;15.00;72.14
24013;BME280;12220;50.194;18.948;2023-03-24T08:00:28;101135.31;;;15.24;71.87
24013;BME280;12220;50.194;18.948;2023-03-24T08:02:47;101132.67;;;15.33;71.73
24013;BME280;12220;50.194;18.948;2023-03-24T08:04:50;101139.43;;;15.41;71.54
24013;BME280;12220;50.194;18.948;2023-03-24T08:06:53;101131.35;;;15.49;71.40
24013;BME280;12220;50.194;18.948;2023-03-24T08:08:58;101131.45;;;15.59;71.25
24013;BME280;12220;50.194;18.948;2023-03-24T08:11:05;101121.65;;;15.66;71.02
24013;BME280;12220;50.194;18.948;2023-03-24T08:13:07;101119.98;;;15.75;70.88
24013;BME280;12220;50.194;18.948;2023-03-24T08:15:11;101115.58;;;15.83;70.63
24013;BME280;12220;50.194;18.948;2023-03-24T08:17:13;101114.91;;;15.91;70.17
24013;BME280;12220;50.194;18.948;2023-03-24T08:19:15;101102.45;;;15.97;70.12
24013;BME280;12220;50.194;18.948;2023-03-24T08:21:19;101114.58;;;16.06;70.02
24013;BME280;12220;50.194;18.948;2023-03-24T08:23:21;101105.74;;;16.12;69.87
24013;BME280;12220;50.194;18.948;2023-03-24T08:25:28;101111.34;;;16.21;69.81
24013;BME280;12220;50.194;18.948;2023-03-24T08:27:31;101107.03;;;16.29;69.56
24013;BME280;12220;50.194;18.948;2023-03-24T08:29:32;101113.77;;;16.36;69.28
24013;BME280;12220;50.194;18.948;2023-03-24T08:31:37;101104.78;;;16.44;68.84
24013;BME280;12220;50.194;18.948;2023-03-24T08:33:43;101109.64;;;16.51;68.44
24013;BME280;12220;50.194;18.948;2023-03-24T08:35:45;101105.43;;;16.57;68.18
24013;BME280;12220;50.194;18.948;2023-03-24T08:37:47;101100.23;;;16.64;68.06
24013;BME280;12220;50.194;18.948;2023-03-24T08:39:48;101099.54;;;16.71;67.95
24013;BME280;12220;50.194;18.948;2023-03-24T08:41:58;101098.85;;;16.79;67.96
24013;BME280;12220;50.194;18.948;2023-03-24T08:44:03;101092.76;;;16.85;67.98
24013;BME280;12220;50.194;18.948;2023-03-24T08:46:06;101089.30;;;16.93;67.94
24013;BME280;12220;50.194;18.948;2023-03-24T08:48:09;101087.73;;;17.00;67.43
24013;BME280;12220;50.194;18.948;2023-03-24T08:50:13;101094.45;;;17.07;67.15
24013;BME280;12220;50.194;18.948;2023-03-24T08:52:15;101085.73;;;17.12;66.98
24013;BME280;12220;50.194;18.948;2023-03-24T08:54:18;101073.35;;;17.16;66.61
24013;BME280;12220;50.194;18.948;2023-03-24T08:56:23;101075.41;;;17.24;66.41
24013;BME280;12220;50.194;18.948;2023-03-24T08:58:28;101062.88;;;17.30;66.03
24013;BME280;12220;50.194;18.948;2023-03-24T09:00:29;101061.59;;;17.34;65.74
24013;BME280;12220;50.194;18.948;2023-03-24T09:02:31;101060.99;;;17.40;65.68
24013;BME280;12220;50.194;18.948;2023-03-24T09:04:33;101055.77;;;17.47;65.40
24013;BME280;12220;50.194;18.948;2023-03-24T09:06:43;101048.64;;;17.54;65.44
24013;BME280;12220;50.194;18.948;2023-03-24T09:08:44;101050.66;;;17.62;65.29
24013;BME280;12220;50.194;18.948;2023-03-24T09:10:46;101047.19;;;17.69;64.89
24013;BME280;12220;50.194;18.948;2023-03-24T09:12:48;101056.52;;;17.78;64.36
24013;BME280;12220;50.194;18.948;2023-03-24T09:14:57;101051.98;;;17.87;64.01
24013;BME280;12220;50.194;18.948;2023-03-24T09:16:59;101041.50;;;17.90;64.03
24013;BME280;12220;50.194;18.948;2023-03-24T09:19:01;101045.27;;;17.99;63.90
24013;BME280;12220;50.194;18.948;2023-03-24T09:21:03;101041.89;;;18.05;63.71
24013;BME280;12220;50.194;18.948;2023-03-24T09:23:13;101040.13;;;18.14;63.48
24013;BME280;12220;50.194;18.948;2023-03-24T09:25:17;101041.42;;;18.20;63.31
24013;BME280;12220;50.194;18.948;2023-03-24T09:27:19;101038.95;;;18.26;62.94
24013;BME280;12220;50.194;18.948;2023-03-24T09:29:20;101037.16;;;18.35;62.76
24013;BME280;12220;50.194;18.948;2023-03-24T09:31:27;101032.60;;;18.44;62.23
24013;BME280;12220;50.194;18.948;2023-03-24T09:33:29;101024.53;;;18.51;61.82
24013;BME280;12220;50.194;18.948;2023-03-24T09:35:30;101018.23;;;18.58;61.43
24013;BME280;12220;50.194;18.948;2023-03-24T09:37:33;101023.88;;;18.67;60.98
24013;BME280;12220;50.194;18.948;2023-03-24T09:39:42;101018.59;;;18.73;60.50
24013;BME280;12220;50.194;18.948;2023-03-24T09:41:44;101006.87;;;18.79;59.90
24013;BME280;12220;50.194;18.948;2023-03-24T09:44:02;101022.89;;;18.86;59.66
24013;BME280;12220;50.194;18.948;2023-03-24T09:46:11;101009.47;;;18.91;59.19
24013;BME280;12220;50.194;18.948;2023-03-24T09:48:26;101009.00;;;18.95;58.60
24013;BME280;12220;50.194;18.948;2023-03-24T09:50:34;101007.66;;;18.99;58.79
24013;BME280;12220;50.194;18.948;2023-03-24T09:52:42;101011.71;;;19.05;58.64
24013;BME280;12220;50.194;18.948;2023-03-24T09:57:03;101003.78;;;19.10;57.77
24013;BME280;12220;50.194;18.948;2023-03-24T10:01:19;101001.27;;;19.17;57.06
24013;BME280;12220;50.194;18.948;2023-03-24T10:03:29;100999.02;;;19.21;56.58
24013;BME280;12220;50.194;18.948;2023-03-24T10:05:40;100998.73;;;19.24;56.71
24013;BME280;12220;50.194;18.948;2023-03-24T10:07:53;100991.81;;;19.28;56.14
24013;BME280;12220;50.194;18.948;2023-03-24T10:09:58;101003.16;;;19.34;55.99
24013;BME280;12220;50.194;18.948;2023-03-24T10:16:47;100997.59;;;19.53;53.95
24013;BME280;12220;50.194;18.948;2023-03-24T10:21:19;100991.95;;;19.62;53.26
24013;BME280;12220;50.194;18.948;2023-03-24T10:23:33;100983.13;;;19.67;53.59
24013;BME280;12220;50.194;18.948;2023-03-24T10:25:42;100985.13;;;19.75;53.52
24013;BME280;12220;50.194;18.948;2023-03-24T10:29:59;100990.27;;;19.88;52.56
24013;BME280;12220;50.194;18.948;2023-03-24T10:32:05;100985.97;;;19.93;52.68
24013;BME280;12220;50.194;18.948;2023-03-24T10:34:21;100980.80;;;19.98;52.45
24013;BME280;12220;50.194;18.948;2023-03-24T10:36:25;100989.66;;;20.02;52.49
24013;BME280;12220;50.194;18.948;2023-03-24T10:38:28;100980.13;;;20.05;51.66
24013;BME280;12220;50.194;18.948;2023-03-24T10:40:32;100970.61;;;20.07;51.68
24013;BME280;12220;50.194;18.948;2023-03-24T10:42:36;100976.86;;;20.09;51.56
24013;BME280;12220;50.194;18.948;2023-03-24T10:44:38;100963.85;;;20.10;51.18
24013;BME280;12220;50.194;18.948;2023-03-24T10:46:47;100975.68;;;20.12;50.99
24013;BME280;12220;50.194;18.948;2023-03-24T10:48:52;100975.50;;;20.13;51.08
24013;BME280;12220;50.194;18.948;2023-03-24T10:50:57;100968.02;;;20.14;51.26
24013;BME280;12220;50.194;18.948;2023-03-24T10:53:00;100975.50;;;20.13;50.30
24013;BME280;12220;50.194;18.948;2023-03-24T10:55:12;100964.38;;;20.13;50.68
24013;BME280;12220;50.194;18.948;2023-03-24T10:57:17;100963.35;;;20.14;50.79
24013;BME280;12220;50.194;18.948;2023-03-24T11:01:33;100964.77;;;20.18;50.60
24013;BME280;12220;50.194;18.948;2023-03-24T11:03:37;100968.24;;;20.20;49.88
24013;BME280;12220;50.194;18.948;2023-03-24T11:05:40;100960.77;;;20.21;49.29
24013;BME280;12220;50.194;18.948;2023-03-24T11:07:48;100969.44;;;20.18;48.77
24013;BME280;12220;50.194;18.948;2023-03-24T11:14:30;100958.88;;;20.22;49.42
24013;BME280;12220;50.194;18.948;2023-03-24T11:16:37;100951.23;;;20.24;49.75
24013;BME280;12220;50.194;18.948;2023-03-24T11:20:57;100945.72;;;20.32;49.87
24013;BME280;12220;50.194;18.948;2023-03-24T11:25:15;100932.88;;;20.39;49.74
24013;BME280;12220;50.194;18.948;2023-03-24T11:27:27;100942.82;;;20.42;49.64
24013;BME280;12220;50.194;18.948;2023-03-24T11:29:33;100936.20;;;20.43;49.40
24013;BME280;12220;50.194;18.948;2023-03-24T11:31:39;100935.17;;;20.44;49.14
24013;BME280;12220;50.194;18.948;2023-03-24T11:33:46;100936.02;;;20.44;49.02
24013;BME280;12220;50.194;18.948;2023-03-24T11:35:51;100923.87;;;20.45;48.75
24013;BME280;12220;50.194;18.948;2023-03-24T11:37:52;100922.11;;;20.44;48.60
24013;BME280;12220;50.194;18.948;2023-03-24T11:42:15;100918.99;;;20.47;48.72
24013;BME280;12220;50.194;18.948;2023-03-24T11:44:23;100913.44;;;20.47;48.95
24013;BME280;12220;50.194;18.948;2023-03-24T11:46:25;100906.84;;;20.48;48.69
24013;BME280;12220;50.194;18.948;2023-03-24T11:48:43;100910.48;;;20.49;48.57
24013;BME280;12220;50.194;18.948;2023-03-24T11:50:51;100903.03;;;20.49;48.70
24013;BME280;12220;50.194;18.948;2023-03-24T11:59:51;100739.30;;;19.53;47.99
24013;BME280;12220;50.194;18.948;2023-03-24T12:13:48;100881.95;;;20.38;47.66
24013;BME280;12220;50.194;18.948;2023-03-24T12:16:04;100881.95;;;20.38;47.83
24013;BME280;12220;50.194;18.948;2023-03-24T12:20:25;100880.21;;;20.37;48.15
24013;BME280;12220;50.194;18.948;2023-03-24T12:22:43;100878.48;;;20.36;48.29
24013;BME280;12220;50.194;18.948;2023-03-24T12:27:00;100873.24;;;20.33;48.39
24013;BME280;12220;50.194;18.948;2023-03-24T12:33:51;100864.36;;;20.30;48.54
24013;BME280;12220;50.194;18.948;2023-03-24T12:42:39;100853.57;;;20.27;48.73
24013;BME280;12220;50.194;18.948;2023-03-24T12:57:11;100844.50;;;20.16;48.73
24013;BME280;12220;50.194;18.948;2023-03-24T12:59:19;100837.23;;;20.15;48.79
24013;BME280;12220;50.194;18.948;2023-03-24T13:03:42;100838.42;;;20.13;48.98
24013;BME280;12220;50.194;18.948;2023-03-24T13:05:52;100845.70;;;20.14;49.13
24013;BME280;12220;50.194;18.948;2023-03-24T13:07:58;100837.23;;;20.15;49.23
24013;BME280;12220;50.194;18.948;2023-03-24T13:10:11;100833.55;;;20.15;49.01
24013;BME280;12220;50.194;18.948;2023-03-24T13:12:20;100830.60;;;20.16;49.02
24013;BME280;12220;50.194;18.948;2023-03-24T13:14:30;100831.66;;;20.15;48.98
24013;BME280;12220;50.194;18.948;2023-03-24T13:16:44;100826.10;;;20.15;49.13
24013;BME280;12220;50.194;18.948;2023-03-24T13:18:52;100827.99;;;20.15;49.19
24013;BME280;12220;50.194;18.948;2023-03-24T13:25:38;100861.91;;;20.18;49.25
24013;BME280;12220;50.194;18.948;2023-03-24T13:27:44;100821.91;;;20.19;49.34
24013;BME280;12220;50.194;18.948;2023-03-24T13:30:02;100820.72;;;20.22;49.29
24013;BME280;12220;50.194;18.948;2023-03-24T13:32:14;100814.13;;;20.23;49.32
24013;BME280;12220;50.194;18.948;2023-03-24T13:34:34;100816.91;;;20.23;49.28
24013;BME280;12220;50.194;18.948;2023-03-24T13:39:15;100805.79;;;20.23;49.18
24013;BME280;12220;50.194;18.948;2023-03-24T13:41:20;100801.27;;;20.22;49.23
24013;BME280;12220;50.194;18.948;2023-03-24T13:43:28;100798.48;;;20.22;49.27
24013;BME280;12220;50.194;18.948;2023-03-24T13:47:49;100793.27;;;20.19;48.96
24013;BME280;12220;50.194;18.948;2023-03-24T13:50:00;100790.65;;;20.17;49.06
24013;BME280;12220;50.194;18.948;2023-03-24T13:52:30;100789.80;;;20.17;49.11
24013;BME280;12220;50.194;18.948;2023-03-24T13:54:36;100793.60;;;20.16;49.09
24013;BME280;12220;50.194;18.948;2023-03-24T14:01:16;100758.24;;;19.92;48.85
24013;BME280;12220;50.194;18.948;2023-03-24T14:05:53;100789.21;;;20.05;49.06
24013;BME280;12220;50.194;18.948;2023-03-24T14:07:46;100782.78;;;20.05;49.17
24013;BME280;12220;50.194;18.948;2023-03-24T14:09:59;100786.59;;;20.03;49.26
24013;BME280;12220;50.194;18.948;2023-03-24T14:12:08;100784.16;;;20.00;48.94
24013;BME280;12220;50.194;18.948;2023-03-24T14:14:19;100778.09;;;19.97;48.64
24013;BME280;12220;50.194;18.948;2023-03-24T14:18:39;100780.48;;;19.92;48.68
24013;BME280;12220;50.194;18.948;2023-03-24T14:21:00;100779.79;;;19.90;48.50
24013;BME280;12220;50.194;18.948;2023-03-24T14:25:31;100768.84;;;19.88;48.85
24013;BME280;12220;50.194;18.948;2023-03-24T14:27:39;100763.46;;;19.87;48.01
24013;BME280;12220;50.194;18.948;2023-03-24T14:29:48;100764.32;;;19.87;47.97
24013;BME280;12220;50.194;18.948;2023-03-24T14:32:00;100759.78;;;19.86;46.31
24013;BME280;12220;50.194;18.948;2023-03-24T14:38:43;100745.21;;;19.84;44.10
24013;BME280;12220;50.194;18.948;2023-03-24T14:40:57;100746.23;;;19.83;42.85
24013;BME280;12220;50.194;18.948;2023-03-24T14:45:37;100746.78;;;19.87;43.58